Time;durP1;ratioP1;P1;durP2;ratioP2;P2;SDS_P1;SDS_P2;PMS_P1;PMS_P2;Temp;Humidity;BMP_temperature;BMP_pressure;BME280_temperature;BME280_humidity;BME280_pressure;Samples;Min_cycle;Max_cycle;Signal;HPM_P1;HPM_P2
2022/06/16 00:01:36;;;;;;;9.85;4.53;;;;;;;21.88;100.00;100539.44;5032557;28;20262;-70
2022/06/16 00:04:04;;;;;;;5.40;4.53;;;;;;;21.93;100.00;100527.03;5033085;28;20294;-70
2022/06/16 00:06:31;;;;;;;11.20;5.50;;;;;;;21.92;100.00;100546.44;5032819;28;20296;-70
2022/06/16 00:08:58;;;;;;;6.70;5.72;;;;;;;21.77;100.00;100538.81;5014341;28;20280;-70
2022/06/16 00:11:25;;;;;;;7.35;5.95;;;;;;;21.72;100.00;100515.16;5032863;28;20283;-70
2022/06/16 00:13:53;;;;;;;9.80;5.97;;;;;;;21.88;100.00;100547.38;5014434;28;20318;-70
2022/06/16 00:16:22;;;;;;;10.85;6.25;;;;;;;21.77;100.00;100536.19;5033312;28;20208;-70
2022/06/16 00:18:50;;;;;;;7.30;6.00;;;;;;;21.79;100.00;100539.69;5033049;28;20268;-70
2022/06/16 00:21:18;;;;;;;9.20;6.45;;;;;;;21.51;100.00;100535.94;5014236;28;20287;-70
2022/06/16 00:23:45;;;;;;;16.83;6.32;;;;;;;21.55;100.00;100542.84;5032788;28;20287;-70
2022/06/16 00:26:13;;;;;;;12.30;6.65;;;;;;;21.39;100.00;100538.84;5032310;28;20283;-70
2022/06/16 00:28:41;;;;;;;10.63;5.97;;;;;;;21.34;100.00;100527.50;5014267;28;20193;-70
2022/06/16 00:31:10;;;;;;;8.68;7.00;;;;;;;21.37;100.00;100530.09;5032480;28;20208;-70
2022/06/16 00:33:38;;;;;;;10.15;7.07;;;;;;;21.14;100.00;100505.06;5032687;28;20283;-70
2022/06/16 00:36:06;;;;;;;10.18;7.28;;;;;;;21.18;100.00;100521.69;5014127;28;20204;-70
2022/06/16 00:38:33;;;;;;;9.65;6.30;;;;;;;21.01;100.00;100516.72;5032507;28;20204;-70
2022/06/16 00:41:00;;;;;;;9.50;6.88;;;;;;;21.08;100.00;100515.69;5032686;28;20580;-70
2022/06/16 00:43:28;;;;;;;11.85;7.00;;;;;;;21.12;100.00;100514.78;5032074;28;20287;-70
2022/06/16 00:45:59;;;;;;;10.88;6.20;;;;;;;21.18;100.00;100509.38;5032158;28;20197;-70
2022/06/16 00:48:30;;;;;;;9.23;6.35;;;;;;;21.17;100.00;100509.41;5032371;28;20204;-70
2022/06/16 00:51:05;;;;;;;9.10;7.60;;;;;;;21.15;100.00;100514.69;5032271;28;20204;-70
2022/06/16 00:53:33;;;;;;;7.82;7.07;;;;;;;21.08;100.00;100507.78;5031969;28;20585;-70
2022/06/16 00:56:00;;;;;;;7.45;6.60;;;;;;;21.02;100.00;100505.28;5018324;28;20564;-70
2022/06/16 00:58:29;;;;;;;13.95;6.85;;;;;;;21.06;100.00;100500.81;5031991;28;20204;-70
2022/06/16 01:00:56;;;;;;;10.82;6.60;;;;;;;20.88;100.00;100507.34;5031362;28;20230;-70
2022/06/16 01:06:21;;;;;;;9.07;6.63;;;;;;;20.87;100.00;100473.13;5031720;28;20679;-70
2022/06/16 01:08:51;;;;;;;7.15;6.03;;;;;;;20.98;100.00;100503.59;5031487;28;20283;-70
2022/06/16 01:14:21;;;;;;;17.10;6.68;;;;;;;21.02;100.00;100492.09;5032070;28;20235;-70
2022/06/16 01:16:51;;;;;;;20.58;7.13;;;;;;;20.67;100.00;100465.59;5031857;28;20283;-70
2022/06/16 01:19:39;;;;;;;7.50;6.78;;;;;;;21.15;100.00;100511.22;5013355;28;20307;-70
2022/06/16 01:22:12;;;;;;;12.98;6.75;;;;;;;21.09;100.00;100506.91;5031434;28;20290;-70
2022/06/16 01:25:02;;;;;;;9.10;7.07;;;;;;;21.08;100.00;100505.16;5032032;28;20306;-70
2022/06/16 01:28:01;;;;;;;11.40;7.00;;;;;;;21.06;100.00;100490.28;4981025;28;20755;-70
2022/06/16 01:30:35;;;;;;;8.10;7.28;;;;;;;20.94;100.00;100478.19;5019856;28;20283;-70
2022/06/16 01:33:09;;;;;;;12.80;8.00;;;;;;;20.97;100.00;100480.81;5031597;28;20210;-70
2022/06/16 01:35:42;;;;;;;11.07;7.43;;;;;;;20.87;100.00;100484.50;5031581;28;20735;-70
2022/06/16 01:38:15;;;;;;;7.95;7.18;;;;;;;20.98;100.00;100484.28;5031571;28;20193;-70
2022/06/16 01:40:48;;;;;;;9.30;7.72;;;;;;;20.85;100.00;100473.13;5031199;28;20611;-70
2022/06/16 01:43:23;;;;;;;10.27;7.90;;;;;;;20.91;100.00;100475.63;5013548;28;20262;-70
2022/06/16 01:45:58;;;;;;;15.68;7.95;;;;;;;20.82;100.00;100481.13;5031085;28;20195;-70
2022/06/16 01:48:28;;;;;;;8.95;7.72;;;;;;;20.66;100.00;100469.13;5031512;28;20207;-70
2022/06/16 01:51:03;;;;;;;9.70;7.80;;;;;;;20.68;100.00;100484.03;5031135;28;20204;-70
2022/06/16 01:53:34;;;;;;;11.55;8.13;;;;;;;20.19;100.00;100441.88;4995778;28;20199;-70
2022/06/16 01:56:11;;;;;;;12.02;8.02;;;;;;;19.53;100.00;100319.41;5031012;28;20196;-70
2022/06/16 01:58:41;;;;;;;11.20;8.30;;;;;;;20.32;100.00;100468.91;5030404;28;20616;-70
2022/06/16 02:01:15;;;;;;;9.82;8.82;;;;;;;20.46;100.00;100471.28;5031139;28;20232;-70
2022/06/16 02:03:47;;;;;;;12.75;8.55;;;;;;;20.53;100.00;100476.41;4997162;28;20234;-70
2022/06/16 02:06:20;;;;;;;16.05;8.07;;;;;;;20.52;100.00;100471.16;5030813;28;20211;-70
2022/06/16 02:08:54;;;;;;;8.30;7.18;;;;;;;20.39;100.00;100475.81;5031308;28;20307;-70
2022/06/16 02:11:26;;;;;;;9.15;7.70;;;;;;;20.40;100.00;100476.69;4995531;28;20228;-70
2022/06/16 02:13:57;;;;;;;11.27;8.13;;;;;;;20.21;100.00;100455.91;5031140;28;20231;-70
2022/06/16 02:16:29;;;;;;;10.23;7.60;;;;;;;20.34;100.00;100474.13;5030803;28;20207;-70
2022/06/16 02:18:57;;;;;;;13.10;8.90;;;;;;;20.30;100.00;100469.84;4996716;28;20673;-70
2022/06/16 02:21:32;;;;;;;10.73;8.30;;;;;;;20.46;100.00;100471.28;5030764;28;20228;-70
2022/06/16 02:24:00;;;;;;;8.90;8.05;;;;;;;20.23;100.00;100469.91;5030787;28;20191;-66
2022/06/16 02:26:27;;;;;;;10.20;8.02;;;;;;;20.42;100.00;100488.03;5011727;28;20303;-69
2022/06/16 02:28:58;;;;;;;11.98;8.30;;;;;;;20.20;100.00;100469.97;5030934;28;20208;-69
2022/06/16 02:31:40;;;;;;;11.65;7.78;;;;;;;20.51;100.00;100486.09;5030923;28;20230;-69
2022/06/16 02:34:17;;;;;;;12.02;8.10;;;;;;;20.57;100.00;100485.13;4996152;28;20208;-69
2022/06/16 02:37:03;;;;;;;11.77;7.60;;;;;;;20.13;100.00;100467.47;5030767;28;20302;-70
2022/06/16 02:39:43;;;;;;;9.93;8.68;;;;;;;20.40;100.00;100487.22;5030629;28;20578;-69
2022/06/16 02:42:18;;;;;;;15.55;8.80;;;;;;;20.52;100.00;100493.13;5030992;28;20208;-70
2022/06/16 02:44:57;;;;;;;12.57;7.72;;;;;;;20.45;100.00;100469.53;5011901;28;20211;-69
2022/06/16 02:47:46;;;;;;;9.43;7.57;;;;;;;20.78;100.00;100503.16;5030737;28;20199;-69
2022/06/16 02:50:23;;;;;;;14.55;8.15;;;;;;;20.75;100.00;100506.72;5030995;28;20262;-69
2022/06/16 02:52:58;;;;;;;10.13;7.85;;;;;;;20.64;100.00;100495.53;5030562;28;20210;-69
2022/06/16 02:55:34;;;;;;;10.77;9.13;;;;;;;20.69;100.00;100498.09;5030304;28;20206;-69
2022/06/16 02:58:03;;;;;;;11.70;8.57;;;;;;;20.77;100.00;100504.91;5010089;28;20195;-69
2022/06/16 03:00:35;;;;;;;9.82;8.13;;;;;;;20.72;100.00;100492.75;5030129;28;20216;-69
2022/06/16 03:03:20;;;;;;;12.00;8.70;;;;;;;20.82;100.00;100486.38;5030657;28;20192;-69
2022/06/16 03:05:50;;;;;;;9.88;7.88;;;;;;;21.02;100.00;100507.06;5011691;28;20228;-69
2022/06/16 03:08:18;;;;;;;8.95;6.47;;;;;;;20.95;100.00;100495.78;5030510;28;20200;-68
2022/06/16 03:10:54;;;;;;;8.38;6.97;;;;;;;20.98;100.00;100508.88;5033542;28;20214;-68
2022/06/16 03:13:23;;;;;;;9.88;6.95;;;;;;;21.46;100.00;100516.69;5031895;28;20239;-68
2022/06/16 03:15:52;;;;;;;10.35;6.50;;;;;;;22.08;100.00;100518.72;5034256;28;20204;-69
2022/06/16 03:18:21;;;;;;;6.78;5.38;;;;;;;22.73;100.00;100513.50;5034478;28;20208;-69
2022/06/16 03:20:48;;;;;;;5.47;4.80;;;;;;;23.31;100.00;100525.06;5034321;28;20259;-69
2022/06/16 03:23:15;;;;;;;5.80;4.97;;;;;;;24.12;100.00;100551.63;5033991;28;20234;-69
2022/06/16 03:25:43;;;;;;;5.28;4.28;;;;;;;24.36;100.00;100528.78;5033808;28;20207;-77
2022/06/16 03:28:11;;;;;;;10.98;6.30;;;;;;;24.54;100.00;100561.75;5033600;28;20204;-69
2022/06/16 03:30:40;;;;;;;12.43;5.93;;;;;;;25.05;100.00;100554.59;5033481;28;20208;-69
2022/06/16 03:33:08;;;;;;;10.77;6.22;;;;;;;25.22;100.00;100553.13;5033855;28;20218;-69
2022/06/16 03:35:37;;;;;;;10.45;5.82;;;;;;;25.57;100.00;100560.63;5033949;28;20204;-69
2022/06/16 03:38:05;;;;;;;12.18;5.85;;;;;;;25.89;100.00;100549.59;5033940;28;20204;-70
2022/06/16 03:40:32;;;;;;;6.80;5.50;;;;;;;26.63;100.00;100554.47;5032995;28;20242;-68
2022/06/16 03:42:59;;;;;;;12.40;5.85;;;;;;;26.83;100.00;100553.59;5033049;28;20192;-68
2022/06/16 03:45:26;;;;;;;8.40;5.22;;;;;;;26.82;97.90;100546.56;5015029;28;20192;-68
2022/06/16 03:47:53;;;;;;;11.13;6.18;;;;;;;27.58;93.86;100561.72;5033126;28;20203;-68
2022/06/16 03:50:20;;;;;;;9.82;5.35;;;;;;;27.73;90.13;100561.00;5032640;28;20200;-69
2022/06/16 03:52:48;;;;;;;9.40;5.70;;;;;;;28.10;89.46;100549.44;5033192;28;20196;-68
2022/06/16 03:55:15;;;;;;;9.32;5.40;;;;;;;27.86;89.36;100574.63;4997573;28;20200;-67
2022/06/16 03:57:42;;;;;;;9.38;5.88;;;;;;;27.63;91.15;100570.38;5033302;28;20199;-68
2022/06/16 04:00:10;;;;;;;13.90;5.78;;;;;;;26.75;99.65;100539.75;5015014;28;20228;-67
2022/06/16 04:02:37;;;;;;;11.55;6.75;;;;;;;26.60;100.00;100572.34;5033211;28;20298;-68
2022/06/16 04:05:06;;;;;;;8.70;5.88;;;;;;;26.70;100.00;100554.19;5033754;28;20231;-67
2022/06/16 04:07:33;;;;;;;9.80;5.82;;;;;;;26.86;100.00;100558.78;5032837;28;20284;-68
2022/06/16 04:10:02;;;;;;;12.32;6.03;;;;;;;26.94;100.00;100566.44;5033270;28;20196;-69
2022/06/16 04:12:28;;;;;;;6.75;6.05;;;;;;;26.55;100.00;100558.38;5032833;28;20215;-68
2022/06/16 04:14:55;;;;;;;6.65;5.93;;;;;;;26.48;100.00;100562.22;5032155;28;20234;-68
2022/06/16 04:17:22;;;;;;;11.15;5.72;;;;;;;26.42;100.00;100565.16;4998077;28;20203;-69
2022/06/16 04:22:34;;;;;;;7.07;5.80;;;;;;;26.67;100.00;100565.84;5031616;28;20211;-68
2022/06/16 04:25:02;;;;;;;8.73;5.72;;;;;;;26.02;100.00;100573.88;5032917;28;20203;-68
2022/06/16 04:27:29;;;;;;;9.13;5.93;;;;;;;26.13;100.00;100567.22;5032973;28;20196;-68
2022/06/16 04:29:56;;;;;;;8.85;5.82;;;;;;;26.49;100.00;100574.59;5032860;28;20211;-69
2022/06/16 04:32:23;;;;;;;8.90;6.25;;;;;;;26.78;100.00;100573.34;4998125;28;20578;-69
2022/06/16 04:34:50;;;;;;;6.85;5.25;;;;;;;27.04;100.00;100565.97;5032588;28;20286;-68
2022/06/16 04:37:17;;;;;;;6.95;5.72;;;;;;;26.68;98.71;100511.69;5032432;28;20212;-68
2022/06/16 04:39:44;;;;;;;6.63;5.80;;;;;;;26.75;100.00;100576.16;5032329;28;20204;-68
2022/06/16 04:42:12;;;;;;;7.38;6.13;;;;;;;26.05;100.00;100569.31;5032087;28;20695;-68
2022/06/16 04:44:40;;;;;;;10.13;6.10;;;;;;;26.06;100.00;100547.13;5032249;28;20196;-69
2022/06/16 04:47:08;;;;;;;14.38;5.75;;;;;;;26.71;100.00;100586.06;5032585;28;20192;-69
2022/06/16 04:49:37;;;;;;;5.30;4.90;;;;;;;26.72;100.00;100571.81;5031540;28;20649;-69
2022/06/16 04:52:05;;;;;;;8.85;5.85;;;;;;;26.70;100.00;100522.25;5032043;28;20214;-69
2022/06/16 04:54:32;;;;;;;8.75;6.22;;;;;;;27.24;100.00;100589.03;4997486;28;20200;-70
2022/06/16 04:56:59;;;;;;;9.20;6.25;;;;;;;26.99;100.00;100567.09;5031896;28;20207;-68
2022/06/16 04:59:28;;;;;;;7.68;6.13;;;;;;;27.13;99.95;100593.13;4997569;28;20601;-69
2022/06/16 05:01:55;;;;;;;7.57;5.95;;;;;;;27.03;100.00;100572.25;5031614;28;20231;-69
2022/06/16 05:04:21;;;;;;;8.40;5.80;;;;;;;27.23;100.00;100578.44;5012573;28;20208;-69
2022/06/16 05:06:48;;;;;;;7.47;6.60;;;;;;;27.78;95.54;100577.66;5031031;28;20203;-68
2022/06/16 05:09:15;;;;;;;10.10;7.13;;;;;;;28.32;89.01;100558.09;4997260;28;20203;-68
2022/06/16 05:11:42;;;;;;;7.95;5.40;;;;;;;28.55;85.62;100587.13;5032106;28;20207;-68
2022/06/16 05:14:09;;;;;;;5.80;5.30;;;;;;;29.45;80.48;100575.28;5030573;28;20223;-69
2022/06/16 05:16:37;;;;;;;13.27;6.15;;;;;;;30.37;77.97;100581.63;5029025;28;20211;-68
2022/06/16 05:19:04;;;;;;;10.55;5.68;;;;;;;31.10;72.37;100577.25;5031727;28;20678;-69
2022/06/16 05:21:31;;;;;;;9.23;5.47;;;;;;;32.02;64.52;100587.41;5031245;28;20226;-69
2022/06/16 05:23:58;;;;;;;6.55;5.20;;;;;;;32.35;63.04;100587.88;5032263;28;20273;-68
2022/06/16 05:26:25;;;;;;;9.63;5.03;;;;;;;31.61;62.55;100571.28;5031788;28;20214;-68
2022/06/16 05:28:52;;;;;;;10.52;5.50;;;;;;;31.65;63.25;100588.91;5032121;28;20608;-67
2022/06/16 05:31:19;;;;;;;7.68;4.82;;;;;;;31.63;62.90;100588.16;5032546;28;20204;-68
2022/06/16 05:33:47;;;;;;;10.02;5.43;;;;;;;30.87;65.81;100576.81;5034078;28;20195;-67
2022/06/16 05:36:14;;;;;;;8.02;4.97;;;;;;;32.28;61.42;100597.31;5038471;28;20199;-67
2022/06/16 05:38:42;;;;;;;10.80;5.60;;;;;;;32.30;58.92;100541.69;5044913;28;20717;-66
2022/06/16 05:41:13;;;;;;;12.85;5.38;;;;;;;31.92;59.67;100595.19;5044170;28;20215;-67
2022/06/16 05:43:41;;;;;;;7.45;5.18;;;;;;;30.81;65.21;100587.91;5000792;28;20240;-66
2022/06/16 05:46:14;;;;;;;13.35;4.88;;;;;;;30.76;67.14;100589.13;5051319;28;20207;-66
2022/06/16 05:48:41;;;;;;;10.63;4.82;;;;;;;31.34;65.01;100589.13;5036972;28;20206;-67
2022/06/16 05:51:11;;;;;;;9.38;5.10;;;;;;;32.31;61.38;100590.88;5051588;28;20221;-67
2022/06/16 05:53:39;;;;;;;10.38;5.07;;;;;;;31.95;62.15;100592.31;5036736;28;20688;-66
2022/06/16 05:56:06;;;;;;;15.00;5.60;;;;;;;31.62;63.27;100593.63;5050801;28;20210;-67
2022/06/16 05:58:34;;;;;;;8.85;4.95;;;;;;;31.56;62.73;100586.84;5032154;28;20697;-67
2022/06/16 06:01:01;;;;;;;5.88;5.18;;;;;;;30.07;67.97;100536.13;5050374;28;20730;-67
2022/06/16 06:03:28;;;;;;;12.35;5.10;;;;;;;29.23;74.33;100593.38;5015573;28;20218;-67
2022/06/16 06:05:55;;;;;;;13.98;5.70;;;;;;;29.41;76.42;100594.22;5036425;28;20195;-68
2022/06/16 06:16:42;;;;;;;5.97;5.30;;;;;;;29.27;78.42;100576.28;5030534;28;20244;-69
2022/06/16 06:19:27;;;;;;;6.20;5.60;;;;;;;29.10;80.26;100599.47;5030711;28;20203;-69
2022/06/16 06:22:05;;;;;;;9.85;5.85;;;;;;;29.18;79.64;100597.25;5030295;28;20323;-69
2022/06/16 06:24:37;;;;;;;7.88;5.22;;;;;;;29.38;77.11;100583.69;5030390;28;20290;-69
2022/06/16 06:27:06;;;;;;;6.43;5.03;;;;;;;29.57;79.42;100595.13;5030540;28;20207;-69
2022/06/16 06:29:34;;;;;;;9.88;5.60;;;;;;;30.14;74.72;100601.72;5030343;28;20664;-69
2022/06/16 06:32:01;;;;;;;7.90;5.43;;;;;;;30.57;70.88;100616.16;5030319;28;20210;-69
2022/06/16 06:34:28;;;;;;;6.38;5.28;;;;;;;29.85;71.27;100611.38;5030416;28;20196;-69
2022/06/16 06:36:55;;;;;;;8.38;5.45;;;;;;;29.10;75.00;100611.00;5030494;28;20200;-69
2022/06/16 06:39:22;;;;;;;8.35;4.85;;;;;;;28.62;78.99;100609.03;5030431;28;20207;-69
2022/06/16 06:41:51;;;;;;;7.55;5.30;;;;;;;28.34;81.49;100611.38;5029658;28;20230;-69
2022/06/16 06:44:17;;;;;;;10.25;5.45;;;;;;;27.66;85.48;100610.19;5030755;28;20196;-69
2022/06/16 06:46:44;;;;;;;10.70;5.45;;;;;;;27.66;85.86;100598.66;5034396;28;20206;-69
2022/06/16 06:49:11;;;;;;;11.25;5.60;;;;;;;27.80;86.09;100590.88;5034121;28;20286;-69
2022/06/16 06:51:39;;;;;;;7.15;5.75;;;;;;;27.59;86.63;100603.41;5034423;28;20225;-69
2022/06/16 06:54:06;;;;;;;6.88;5.07;;;;;;;27.37;85.35;100602.66;5034341;28;20200;-69
2022/06/16 06:56:34;;;;;;;10.32;4.95;;;;;;;27.35;88.19;100604.53;5034027;28;20202;-69
2022/06/16 06:59:06;;;;;;;5.85;5.30;;;;;;;27.10;88.32;100610.97;5034133;28;20207;-69
2022/06/16 07:01:34;;;;;;;7.85;5.13;;;;;;;26.78;92.57;100571.56;5033794;28;20718;-69
2022/06/16 07:04:02;;;;;;;10.85;5.78;;;;;;;26.86;91.70;100604.03;5034097;28;20591;-69
2022/06/16 07:06:30;;;;;;;10.57;5.60;;;;;;;26.96;95.36;100605.38;5015425;28;20638;-69
2022/06/16 07:08:57;;;;;;;11.77;5.60;;;;;;;26.79;93.54;100578.59;5033964;28;20192;-68
2022/06/16 07:11:24;;;;;;;8.15;5.57;;;;;;;27.10;90.81;100592.31;4999035;28;20204;-69
2022/06/16 07:13:51;;;;;;;8.60;4.90;;;;;;;26.83;88.49;100542.97;5033654;28;20246;-69
2022/06/16 07:16:20;;;;;;;7.65;4.53;;;;;;;27.20;88.95;100594.56;4999103;28;20668;-67
2022/06/16 07:18:47;;;;;;;9.57;5.72;;;;;;;27.29;86.74;100588.84;5033749;28;20208;-67
2022/06/16 07:21:15;;;;;;;5.82;5.22;;;;;;;27.29;89.18;100565.69;5033645;28;20224;-67
2022/06/16 07:23:45;;;;;;;5.47;4.40;;;;;;;27.74;85.67;100597.38;5033611;28;20211;-67
2022/06/16 07:26:12;;;;;;;8.98;5.60;;;;;;;27.74;83.33;100591.19;4998880;28;20199;-67
2022/06/16 07:28:39;;;;;;;6.70;4.82;;;;;;;27.65;82.39;100594.28;5033370;28;20196;-67
2022/06/16 07:31:06;;;;;;;15.45;5.05;;;;;;;27.63;83.86;100591.69;5033473;28;20208;-67
2022/06/16 07:33:34;;;;;;;5.47;4.93;;;;;;;27.42;87.05;100595.31;5032861;28;20295;-69
2022/06/16 07:36:01;;;;;;;8.07;4.60;;;;;;;27.44;86.08;100582.78;5033382;28;20208;-67
2022/06/16 07:38:28;;;;;;;5.65;4.30;;;;;;;27.32;82.47;100570.03;5033494;28;20192;-68
2022/06/16 07:41:31;;;;;;;5.03;4.50;;;;;;;27.61;81.97;100606.91;5033163;28;20208;-68
2022/06/16 07:43:43;;;;;;;4.88;4.47;;;;;;;27.72;78.32;100593.91;5031813;28;20727;-68
2022/06/16 07:46:10;;;;;;;20.35;4.57;;;;;;;27.65;79.59;100600.47;5032926;28;20205;-69
2022/06/16 07:48:38;;;;;;;6.05;3.97;;;;;;;27.82;77.96;100605.88;5033248;28;20208;-69
2022/06/16 07:51:05;;;;;;;9.02;3.75;;;;;;;27.52;76.65;100593.97;5032954;28;20199;-68
2022/06/16 07:53:32;;;;;;;9.65;3.83;;;;;;;27.30;80.78;100575.44;5033044;28;20204;-67
2022/06/16 07:55:59;;;;;;;4.80;4.28;;;;;;;27.72;79.03;100601.91;4997158;28;20215;-67
2022/06/16 07:58:30;;;;;;;8.48;3.88;;;;;;;27.71;76.24;100604.66;5033114;28;20236;-68
2022/06/16 08:00:57;;;;;;;5.07;4.40;;;;;;;27.79;79.81;100606.00;5013880;28;20299;-68
2022/06/16 08:03:26;;;;;;;6.00;3.70;;;;;;;27.58;75.50;100612.34;4989442;28;20204;-68
2022/06/16 08:05:55;;;;;;;5.78;3.85;;;;;;;27.74;73.60;100613.38;5027959;28;20230;-68
2022/06/16 08:08:23;;;;;;;4.00;3.70;;;;;;;27.60;72.86;100610.50;5032831;28;20711;-68
2022/06/16 08:10:51;;;;;;;4.55;3.33;;;;;;;27.74;73.32;100592.06;5033154;28;20600;-68
2022/06/16 08:13:18;;;;;;;6.18;3.88;;;;;;;27.33;74.89;100598.38;5016588;28;20200;-68
2022/06/16 08:15:46;;;;;;;3.70;3.30;;;;;;;27.04;74.44;100603.22;5032590;28;20672;-67
2022/06/16 08:18:15;;;;;;;4.72;3.38;;;;;;;26.91;75.82;100594.06;5000009;28;20200;-67
2022/06/16 08:20:42;;;;;;;3.53;3.00;;;;;;;26.84;70.90;100603.25;5032371;28;20591;-67
2022/06/16 08:23:11;;;;;;;4.25;2.95;;;;;;;27.19;68.61;100607.00;5013851;28;20311;-67
2022/06/16 08:25:39;;;;;;;3.65;3.35;;;;;;;27.34;65.53;100602.78;4997882;28;20208;-68
2022/06/16 08:28:07;;;;;;;5.18;2.70;;;;;;;27.47;60.40;100603.97;5032137;28;20593;-68
2022/06/16 08:30:35;;;;;;;3.15;2.80;;;;;;;27.44;64.21;100593.44;5032293;28;20204;-68
2022/06/16 08:33:03;;;;;;;3.35;3.03;;;;;;;27.61;63.30;100600.69;5032037;28;20212;-67
2022/06/16 08:35:29;;;;;;;3.40;3.08;;;;;;;27.56;62.48;100606.22;5032339;28;20228;-67
2022/06/16 08:37:58;;;;;;;3.45;3.10;;;;;;;27.40;60.68;100595.38;5032227;28;20215;-72
2022/06/16 08:40:26;;;;;;;3.75;2.70;;;;;;;27.44;59.63;100582.78;5013304;28;20204;-67
2022/06/16 08:42:58;;;;;;;3.40;3.03;;;;;;;27.68;59.81;100605.69;5032117;28;20228;-67
2022/06/16 08:45:33;;;;;;;3.20;2.88;;;;;;;28.04;60.79;100592.34;5031853;28;20199;-67
2022/06/16 08:48:15;;;;;;;3.35;3.05;;;;;;;28.20;60.09;100596.06;5032088;28;20222;-68
2022/06/16 08:50:48;;;;;;;4.68;2.97;;;;;;;28.19;58.32;100598.78;5031892;28;20688;-68
2022/06/16 08:53:29;;;;;;;3.65;2.97;;;;;;;28.48;58.58;100596.41;5031859;28;20212;-68
2022/06/16 08:56:03;;;;;;;4.22;2.80;;;;;;;28.36;57.02;100598.84;5031730;28;20211;-68
2022/06/16 08:58:39;;;;;;;3.97;2.72;;;;;;;28.09;53.79;100593.03;5032147;28;20207;-67
2022/06/16 09:01:13;;;;;;;2.95;2.70;;;;;;;28.21;55.00;100608.44;5031765;28;20655;-67
2022/06/16 09:03:44;;;;;;;3.50;2.90;;;;;;;27.90;56.42;100601.03;5031862;28;20200;-67
2022/06/16 09:06:22;;;;;;;5.47;2.97;;;;;;;28.08;57.45;100591.31;5031684;28;20287;-67
2022/06/16 09:08:54;;;;;;;3.22;2.90;;;;;;;28.36;55.05;100590.81;5031205;28;20207;-67
2022/06/16 09:11:28;;;;;;;6.50;3.70;;;;;;;28.31;53.36;100585.72;5031512;28;20209;-67
2022/06/16 09:14:18;;;;;;;3.72;2.90;;;;;;;28.68;54.28;100592.72;5031462;28;20733;-67
2022/06/16 09:16:55;;;;;;;5.13;3.63;;;;;;;29.00;53.75;100586.56;5031186;28;20200;-67
2022/06/16 09:19:38;;;;;;;7.63;2.80;;;;;;;29.10;51.57;100588.78;5031642;28;20235;-67
2022/06/16 09:22:22;;;;;;;2.72;2.58;;;;;;;29.06;51.48;100590.75;5031346;28;20234;-67
2022/06/16 09:25:13;;;;;;;3.28;2.70;;;;;;;28.77;50.46;100584.25;5012626;28;20200;-70
2022/06/16 09:27:46;;;;;;;3.25;2.90;;;;;;;28.65;51.30;100592.84;5031482;28;20200;-69
2022/06/16 09:30:18;;;;;;;4.25;2.95;;;;;;;28.77;52.22;100551.34;5030922;28;20203;-70
2022/06/16 09:32:52;;;;;;;3.40;3.10;;;;;;;29.05;50.16;100581.88;5004838;28;20215;-68
2022/06/16 09:35:25;;;;;;;5.90;3.55;;;;;;;29.08;52.39;100582.63;5031124;28;20607;-67
2022/06/16 09:37:58;;;;;;;8.93;2.97;;;;;;;29.18;51.35;100575.88;5031115;28;20684;-68
2022/06/16 09:40:28;;;;;;;8.10;3.60;;;;;;;29.20;53.31;100574.84;5031051;28;20211;-67
2022/06/16 09:43:02;;;;;;;6.35;3.25;;;;;;;28.91;54.81;100560.38;5028837;28;20629;-68
2022/06/16 09:45:34;;;;;;;3.35;3.15;;;;;;;28.44;54.41;100577.94;5030716;28;20196;-68
2022/06/16 09:48:08;;;;;;;2.75;2.50;;;;;;;28.23;54.05;100552.34;5031022;28;20530;-69
2022/06/16 09:50:44;;;;;;;4.22;3.10;;;;;;;28.42;53.76;100574.50;5031116;28;20204;-69
2022/06/16 09:53:17;;;;;;;3.45;3.15;;;;;;;28.66;54.61;100581.25;5030907;28;20270;-68
2022/06/16 09:55:50;;;;;;;3.80;3.10;;;;;;;28.61;52.70;100537.91;5030492;28;20204;-69
2022/06/16 09:58:29;;;;;;;2.70;2.55;;;;;;;28.67;52.03;100575.00;5030601;28;20219;-68
2022/06/16 10:00:58;;;;;;;3.40;3.13;;;;;;;28.53;53.80;100553.47;5030751;28;20200;-69
2022/06/16 10:03:29;;;;;;;5.00;3.17;;;;;;;28.92;52.63;100570.13;5030922;28;20219;-68
2022/06/16 10:06:08;;;;;;;3.15;2.78;;;;;;;28.95;52.68;100569.94;5030572;28;20230;-68
2022/06/16 10:08:43;;;;;;;5.45;3.22;;;;;;;29.11;52.18;100563.81;5030631;28;20200;-69
2022/06/16 10:11:19;;;;;;;2.97;2.75;;;;;;;28.90;52.60;100555.09;5029985;28;20226;-68
2022/06/16 10:13:53;;;;;;;3.80;2.90;;;;;;;29.08;51.02;100559.47;5024051;28;20247;-68
2022/06/16 10:16:30;;;;;;;3.42;2.35;;;;;;;29.30;48.54;100559.19;5024208;28;20214;-68
2022/06/16 10:18:57;;;;;;;7.32;3.17;;;;;;;28.75;48.69;100562.13;5029953;28;20211;-69
2022/06/16 10:21:24;;;;;;;3.30;3.10;;;;;;;28.59;47.25;100561.16;5030413;28;20223;-70
2022/06/16 10:23:54;;;;;;;2.83;2.53;;;;;;;29.11;46.93;100569.13;5030316;28;20729;-69
2022/06/16 10:26:21;;;;;;;2.83;2.60;;;;;;;29.18;46.58;100560.69;5030240;28;20669;-68
2022/06/16 10:29:06;;;;;;;6.05;2.92;;;;;;;29.60;47.49;100562.88;5030213;28;20196;-67
2022/06/16 10:31:37;;;;;;;5.97;2.53;;;;;;;29.34;47.48;100534.91;5030251;28;20203;-67
2022/06/16 10:34:05;;;;;;;3.55;2.55;;;;;;;29.01;47.32;100553.59;4995470;28;20203;-67
2022/06/16 10:36:33;;;;;;;2.70;2.50;;;;;;;29.26;48.13;100554.94;4995997;28;20214;-67
2022/06/16 10:39:10;;;;;;;2.53;2.40;;;;;;;29.80;47.57;100549.22;5030081;28;20200;-67
2022/06/16 10:41:44;;;;;;;3.42;3.13;;;;;;;29.71;47.64;100536.41;5030293;28;20199;-67
2022/06/16 10:44:15;;;;;;;2.80;2.70;;;;;;;29.47;47.72;100519.91;5030371;28;20196;-67
2022/06/16 10:46:49;;;;;;;2.92;2.40;;;;;;;29.49;47.82;100528.72;5030078;28;20200;-67
2022/06/16 10:49:20;;;;;;;5.50;3.00;;;;;;;29.58;48.27;100534.47;4996159;28;20688;-68
2022/06/16 10:51:53;;;;;;;2.55;2.45;;;;;;;29.99;45.99;100525.00;4982369;28;20266;-67
2022/06/16 10:54:28;;;;;;;4.03;2.38;;;;;;;30.02;46.73;100523.00;5017124;28;20223;-68
2022/06/16 10:57:06;;;;;;;4.53;2.30;;;;;;;29.99;46.06;100519.66;4995176;28;20204;-68
2022/06/16 10:59:39;;;;;;;2.10;2.00;;;;;;;29.63;46.18;100525.25;5017888;28;20593;-68
2022/06/16 11:02:17;;;;;;;5.30;2.33;;;;;;;29.66;45.71;100530.44;5030074;28;20263;-69
2022/06/16 11:04:44;;;;;;;2.75;2.50;;;;;;;29.59;45.67;100523.72;5030048;28;20702;-68
2022/06/16 11:07:12;;;;;;;2.50;2.40;;;;;;;29.56;46.03;100523.88;5029741;28;20208;-68
2022/06/16 11:09:39;;;;;;;5.00;2.45;;;;;;;29.34;46.56;100513.53;5030079;28;20208;-68
2022/06/16 11:12:14;;;;;;;4.10;2.72;;;;;;;29.50;46.63;100497.50;5029672;28;20573;-68
2022/06/16 11:14:45;;;;;;;3.00;2.83;;;;;;;29.82;46.01;100512.56;5029471;28;20238;-68
2022/06/16 11:17:19;;;;;;;3.92;2.53;;;;;;;30.10;45.49;100508.31;5029828;28;20680;-68
2022/06/16 11:19:52;;;;;;;2.50;2.10;;;;;;;29.89;45.39;100522.00;5027713;28;20200;-68
2022/06/16 11:22:28;;;;;;;2.42;2.33;;;;;;;29.48;45.49;100527.00;5029988;28;20232;-68
2022/06/16 11:25:00;;;;;;;3.13;1.88;;;;;;;29.57;45.51;100477.50;5010395;28;20200;-68
2022/06/16 11:27:28;;;;;;;2.28;2.10;;;;;;;29.83;45.04;100514.28;5009967;28;20204;-68
2022/06/16 11:29:56;;;;;;;2.55;2.00;;;;;;;30.07;47.83;100519.22;5010598;28;20207;-68
2022/06/16 11:32:28;;;;;;;4.70;2.75;;;;;;;30.07;45.04;100481.75;5013452;28;20196;-68
2022/06/16 11:34:56;;;;;;;3.00;2.35;;;;;;;30.25;43.17;100504.75;5013642;28;20197;-68
2022/06/16 11:37:42;;;;;;;2.38;2.20;;;;;;;30.10;44.28;100487.78;4995276;28;20209;-68
2022/06/16 11:40:20;;;;;;;2.20;2.10;;;;;;;30.38;44.06;100498.56;5013641;28;20204;-68
2022/06/16 11:43:05;;;;;;;2.13;2.00;;;;;;;30.54;42.71;100497.69;5013554;28;20744;-68
2022/06/16 11:45:37;;;;;;;2.80;2.60;;;;;;;30.44;42.92;100508.94;5013714;28;20208;-68
2022/06/16 11:48:16;;;;;;;3.97;2.30;;;;;;;30.17;43.84;100498.97;5013578;28;20634;-69
2022/06/16 11:50:50;;;;;;;3.75;1.80;;;;;;;30.40;42.56;100504.69;5013521;28;20200;-69
2022/06/16 11:53:28;;;;;;;2.20;2.10;;;;;;;30.56;43.27;100506.47;5013450;28;20681;-68